createdAt,value
2022-09-12T00:01:15.496Z,11.80
2022-09-12T00:03:42.687Z,11.80
2022-09-12T00:06:12.847Z,11.80
2022-09-12T00:08:40.031Z,11.80
2022-09-12T00:11:09.060Z,11.80
2022-09-12T00:13:41.484Z,11.80
2022-09-12T00:16:16.194Z,11.70
2022-09-12T00:18:44.261Z,11.70
2022-09-12T00:21:11.121Z,11.70
2022-09-12T00:23:38.026Z,11.70
2022-09-12T00:26:06.776Z,11.70
2022-09-12T00:28:35.522Z,11.70
2022-09-12T00:31:10.013Z,11.60
2022-09-12T00:33:37.357Z,11.60
2022-09-12T00:36:06.926Z,11.60
2022-09-12T00:38:34.012Z,11.60
2022-09-12T00:41:00.957Z,11.60
2022-09-12T00:43:30.922Z,11.60
2022-09-12T00:45:59.071Z,11.50
2022-09-12T00:48:35.378Z,11.50
2022-09-12T00:51:03.052Z,11.50
2022-09-12T00:53:30.311Z,11.40
2022-09-12T00:55:58.680Z,11.40
2022-09-12T00:58:30.385Z,11.40
2022-09-12T01:00:58.911Z,11.40
2022-09-12T01:03:26.739Z,11.30
2022-09-12T01:06:09.402Z,11.30
2022-09-12T01:08:37.536Z,11.30
2022-09-12T01:11:06.153Z,11.20
2022-09-12T01:13:35.697Z,11.10
2022-09-12T01:16:07.437Z,11.10
2022-09-12T01:19:20.256Z,11.10
2022-09-12T01:22:09.049Z,11.10
2022-09-12T01:25:02.278Z,11.00
2022-09-12T01:27:48.815Z,10.90
2022-09-12T01:30:34.463Z,10.80
2022-09-12T01:33:17.397Z,10.70
2022-09-12T01:35:53.334Z,10.70
2022-09-12T01:38:26.405Z,10.70
2022-09-12T01:40:56.372Z,10.70
2022-09-12T01:43:50.307Z,10.70
2022-09-12T01:46:21.371Z,10.70
2022-09-12T01:48:56.450Z,10.70
2022-09-12T01:51:29.857Z,10.70
2022-09-12T01:54:22.882Z,10.70
2022-09-12T01:56:55.318Z,10.70
2022-09-12T01:59:39.519Z,10.70
2022-09-12T02:02:18.920Z,10.70
2022-09-12T02:04:56.658Z,10.70
2022-09-12T02:07:49.631Z,10.70
2022-09-12T02:10:23.974Z,10.60
2022-09-12T02:13:03.145Z,10.50
2022-09-12T02:15:37.870Z,10.50
2022-09-12T02:18:06.728Z,10.50
2022-09-12T02:20:54.875Z,10.40
2022-09-12T02:23:26.486Z,10.40
2022-09-12T02:26:02.339Z,10.40
2022-09-12T02:28:36.134Z,10.40
2022-09-12T02:31:29.010Z,10.30
2022-09-12T02:34:21.804Z,10.40
2022-09-12T02:37:13.190Z,10.30
2022-09-12T02:39:44.491Z,10.20
2022-09-12T02:42:12.480Z,10.20
2022-09-12T02:44:39.605Z,10.20
2022-09-12T02:47:11.569Z,10.10
2022-09-12T02:49:38.575Z,10.20
2022-09-12T02:52:05.630Z,10.20
2022-09-12T02:54:33.049Z,10.20
2022-09-12T02:57:00.083Z,10.20
2022-09-12T02:59:27.412Z,10.20
2022-09-12T03:02:23.720Z,9.90
2022-09-12T03:05:27.155Z,10.20
2022-09-12T03:08:21.018Z,10.20
2022-09-12T03:11:16.413Z,10.20
2022-09-12T03:13:58.478Z,10.20
2022-09-12T03:16:43.724Z,10.20
2022-09-12T03:19:13.288Z,10.10
2022-09-12T03:22:16.209Z,10.10
2022-09-12T03:24:54.609Z,10.10
2022-09-12T03:27:50.270Z,10.10
2022-09-12T03:30:17.251Z,10.00
2022-09-12T03:32:47.012Z,10.00
2022-09-12T03:35:15.260Z,10.00
2022-09-12T03:37:42.344Z,10.00
2022-09-12T03:40:11.696Z,9.90
2022-09-12T03:42:40.149Z,9.90
2022-09-12T03:45:08.910Z,9.90
2022-09-12T03:47:36.399Z,9.90
2022-09-12T03:50:04.672Z,9.90
2022-09-12T03:52:31.620Z,9.90
2022-09-12T03:54:58.458Z,9.90
2022-09-12T03:57:25.373Z,9.90
2022-09-12T03:59:52.133Z,9.90
2022-09-12T04:02:19.097Z,9.90
2022-09-12T04:04:48.882Z,9.90
2022-09-12T04:07:16.737Z,9.90
2022-09-12T04:09:43.601Z,9.80
2022-09-12T04:12:10.539Z,9.80
2022-09-12T04:14:37.621Z,9.80
2022-09-12T04:17:04.563Z,9.80
2022-09-12T04:19:31.352Z,9.80
2022-09-12T04:21:58.474Z,9.70
2022-09-12T04:24:25.641Z,9.70
2022-09-12T04:26:52.607Z,9.70
2022-09-12T04:29:19.561Z,9.70
2022-09-12T04:31:46.615Z,9.60
2022-09-12T04:34:13.568Z,9.50
2022-09-12T04:36:40.437Z,9.50
2022-09-12T04:39:07.809Z,9.50
2022-09-12T04:41:37.219Z,9.50
2022-09-12T04:44:06.816Z,9.40
2022-09-12T04:46:37.590Z,9.40
2022-09-12T04:49:05.591Z,9.40
2022-09-12T04:51:35.942Z,9.40
2022-09-12T04:54:17.859Z,9.30
2022-09-12T04:56:48.793Z,9.30
2022-09-12T04:59:17.148Z,9.30
2022-09-12T05:01:44.076Z,9.30
2022-09-12T05:04:13.047Z,9.30
2022-09-12T05:06:41.458Z,9.20
2022-09-12T05:09:11.603Z,9.10
2022-09-12T05:12:03.107Z,9.10
2022-09-12T05:14:28.613Z,9.10
2022-09-12T05:16:59.844Z,9.10
2022-09-12T05:19:27.577Z,9.20
2022-09-12T05:21:54.611Z,9.30
2022-09-12T05:24:21.450Z,9.30
2022-09-12T05:26:48.440Z,9.30
2022-09-12T05:29:15.405Z,9.30
2022-09-12T05:31:42.383Z,9.30
2022-09-12T05:34:10.133Z,9.30
2022-09-12T05:36:37.458Z,9.30
2022-09-12T05:39:04.663Z,9.30
2022-09-12T05:41:33.970Z,9.30
2022-09-12T05:44:02.749Z,9.30
2022-09-12T05:46:32.187Z,9.20
2022-09-12T05:49:04.674Z,9.20
2022-09-12T05:51:35.256Z,9.20
2022-09-12T05:54:03.454Z,9.20
2022-09-12T05:56:35.085Z,9.20
2022-09-12T05:59:06.465Z,9.30
2022-09-12T06:01:35.153Z,9.30
2022-09-12T06:04:05.277Z,9.40
2022-09-12T06:06:35.695Z,9.40
2022-09-12T06:09:05.324Z,9.50
2022-09-12T06:11:34.287Z,9.60
2022-09-12T06:14:01.473Z,9.70
2022-09-12T06:16:31.253Z,9.70
2022-09-12T06:19:03.807Z,9.80
2022-09-12T06:21:31.406Z,9.90
2022-09-12T06:23:58.944Z,10.00
2022-09-12T06:26:26.701Z,10.20
2022-09-12T06:28:56.073Z,10.40
2022-09-12T06:31:25.763Z,10.60
2022-09-12T06:33:54.672Z,11.10
2022-09-12T06:36:27.511Z,11.70
2022-09-12T06:39:00.991Z,12.40
2022-09-12T06:41:29.794Z,13.10
2022-09-12T06:43:57.190Z,13.80
2022-09-12T06:46:25.371Z,14.50
2022-09-12T06:48:52.447Z,15.00
2022-09-12T06:51:20.288Z,15.40
2022-09-12T06:53:48.245Z,15.80
2022-09-12T06:56:15.126Z,16.20
2022-09-12T06:58:43.538Z,16.60
2022-09-12T07:01:18.170Z,16.90
2022-09-12T07:04:04.801Z,17.20
2022-09-12T07:06:37.820Z,17.60
2022-09-12T07:09:07.052Z,17.90
2022-09-12T07:11:36.685Z,18.00
2022-09-12T07:14:06.106Z,18.20
2022-09-12T07:16:36.718Z,18.40
2022-09-12T07:19:05.782Z,18.60
2022-09-12T07:21:33.103Z,18.80
2022-09-12T07:24:00.146Z,18.90
2022-09-12T07:26:29.205Z,19.00
2022-09-12T07:29:18.725Z,19.20
2022-09-12T07:31:46.429Z,19.40
2022-09-12T07:34:13.925Z,19.60
2022-09-12T07:36:40.934Z,19.80
2022-09-12T07:39:07.813Z,19.90
2022-09-12T07:41:34.939Z,20.20
2022-09-12T07:44:03.277Z,20.40
2022-09-12T07:46:31.296Z,20.70
2022-09-12T07:48:59.983Z,21.10
2022-09-12T07:51:28.758Z,21.50
2022-09-12T07:53:56.655Z,21.80
2022-09-12T07:56:29.344Z,22.00
2022-09-12T07:58:57.235Z,22.20
2022-09-12T08:01:24.384Z,22.40
2022-09-12T08:03:55.762Z,22.50
2022-09-12T08:06:26.378Z,22.60
2022-09-12T08:08:55.781Z,23.40
2022-09-12T08:11:25.030Z,22.90
2022-09-12T08:13:55.692Z,23.10
2022-09-12T08:16:25.068Z,23.30
2022-09-12T08:18:52.201Z,23.40
2022-09-12T08:21:21.200Z,23.60
2022-09-12T08:23:54.066Z,23.80
2022-09-12T08:26:21.216Z,23.90
2022-09-12T08:28:48.984Z,24.00
2022-09-12T08:31:18.017Z,24.10
2022-09-12T08:33:45.532Z,24.30
2022-09-12T08:36:15.182Z,24.50
2022-09-12T08:38:46.978Z,24.60
2022-09-12T08:41:43.259Z,24.50
2022-09-12T08:44:31.607Z,24.70
2022-09-12T08:47:35.508Z,24.80
2022-09-12T08:50:08.836Z,25.00
2022-09-12T08:52:51.932Z,25.00
2022-09-12T08:55:41.345Z,24.90
2022-09-12T08:58:15.068Z,24.70
2022-09-12T09:00:55.997Z,24.40
2022-09-12T09:03:53.321Z,24.20
2022-09-12T09:06:32.258Z,23.80
2022-09-12T09:09:26.779Z,23.50
2022-09-12T09:11:59.881Z,23.20
2022-09-12T09:14:52.684Z,22.70
2022-09-12T09:17:22.149Z,22.50
2022-09-12T09:20:24.184Z,22.30
2022-09-12T09:22:57.291Z,22.10
2022-09-12T09:25:30.611Z,21.70
2022-09-12T09:28:04.283Z,21.50
2022-09-12T09:30:31.766Z,21.30
2022-09-12T09:33:02.025Z,21.20
2022-09-12T09:35:43.568Z,21.20
2022-09-12T09:38:25.637Z,21.10
2022-09-12T09:40:55.326Z,21.00
2022-09-12T09:43:25.512Z,21.00
2022-09-12T09:45:53.361Z,21.00
2022-09-12T09:48:28.843Z,21.00
2022-09-12T09:51:02.259Z,21.00
2022-09-12T09:53:46.836Z,21.10
2022-09-12T09:56:35.369Z,21.10
2022-09-12T09:59:33.657Z,21.20
2022-09-12T10:02:12.121Z,21.30
2022-09-12T10:04:55.214Z,21.30
2022-09-12T10:07:23.618Z,21.30
2022-09-12T10:10:16.584Z,21.20
2022-09-12T10:12:43.754Z,21.20
2022-09-12T10:15:26.172Z,21.20
2022-09-12T10:17:55.820Z,21.20
2022-09-12T10:20:44.248Z,21.20
2022-09-12T10:23:35.314Z,21.30
2022-09-12T10:26:05.226Z,21.40
2022-09-12T10:28:43.381Z,21.40
2022-09-12T10:31:15.631Z,21.40
2022-09-12T10:33:47.418Z,21.50
2022-09-12T10:36:15.645Z,21.50
2022-09-12T10:38:51.046Z,21.60
2022-09-12T10:41:18.694Z,21.70
2022-09-12T10:43:45.884Z,21.70
2022-09-12T10:46:19.512Z,21.70
2022-09-12T10:48:52.282Z,21.80
2022-09-12T10:51:25.309Z,21.80
2022-09-12T10:53:56.502Z,21.90
2022-09-12T10:56:31.408Z,21.90
2022-09-12T10:59:25.472Z,22.00
2022-09-12T11:01:59.217Z,22.10
2022-09-12T11:04:35.454Z,22.00
2022-09-12T11:07:10.801Z,22.10
2022-09-12T11:09:55.939Z,22.10
2022-09-12T11:12:28.237Z,22.10
2022-09-12T11:15:43.800Z,22.00
2022-09-12T11:18:38.573Z,22.00
2022-09-12T11:21:07.434Z,22.00
2022-09-12T11:23:52.467Z,22.10
2022-09-12T11:26:47.035Z,22.20
2022-09-12T11:29:19.829Z,22.30
2022-09-12T11:31:58.923Z,22.40
2022-09-12T11:34:49.571Z,22.40
2022-09-12T11:37:39.779Z,22.60
2022-09-12T11:40:28.548Z,22.60
2022-09-12T11:43:03.391Z,22.80
2022-09-12T11:45:36.289Z,22.70
2022-09-12T11:48:08.573Z,22.70
2022-09-12T11:50:35.738Z,22.70
2022-09-12T11:53:20.353Z,22.80
2022-09-12T11:56:13.769Z,23.00
2022-09-12T11:58:43.138Z,23.10
2022-09-12T12:01:20.996Z,23.10
2022-09-12T12:03:49.321Z,23.10
2022-09-12T12:06:21.699Z,23.10
2022-09-12T12:08:50.491Z,23.20
2022-09-12T12:11:36.993Z,23.20
2022-09-12T12:14:13.158Z,23.20
2022-09-12T12:16:41.639Z,23.10
2022-09-12T12:19:35.728Z,22.90
2022-09-12T12:22:17.064Z,23.00
2022-09-12T12:24:56.235Z,23.10
2022-09-12T12:27:45.181Z,23.10
2022-09-12T12:30:33.484Z,23.20
2022-09-12T12:33:10.409Z,23.20
2022-09-12T12:35:41.254Z,23.30
2022-09-12T12:38:30.049Z,23.40
2022-09-12T12:41:23.637Z,23.50
2022-09-12T12:43:52.434Z,23.50
2022-09-12T12:46:22.631Z,23.50
2022-09-12T12:48:55.563Z,23.50
2022-09-12T12:51:41.378Z,23.60
2022-09-12T12:54:30.274Z,23.80
2022-09-12T12:57:33.096Z,23.80
2022-09-12T13:00:26.021Z,23.90
2022-09-12T13:03:01.208Z,23.90
2022-09-12T13:05:30.677Z,24.00
2022-09-12T13:08:03.601Z,24.00
2022-09-12T13:10:31.294Z,24.10
2022-09-12T13:13:03.471Z,24.20
2022-09-12T13:15:36.497Z,24.00
2022-09-12T13:18:06.485Z,23.80
2022-09-12T13:20:44.565Z,23.70
2022-09-12T13:23:29.266Z,23.70
2022-09-12T13:25:58.429Z,23.70
2022-09-12T13:28:26.711Z,23.90
2022-09-12T13:30:59.600Z,24.10
2022-09-12T13:33:26.998Z,24.20
2022-09-12T13:36:05.782Z,24.30
2022-09-12T13:38:41.928Z,24.40
2022-09-12T13:41:08.821Z,24.50
2022-09-12T13:43:46.717Z,24.60
2022-09-12T13:46:19.686Z,24.70
2022-09-12T13:48:47.127Z,24.70
2022-09-12T13:51:25.157Z,24.70
2022-09-12T13:53:56.166Z,24.70
2022-09-12T13:56:23.287Z,24.80
2022-09-12T13:58:57.389Z,24.90
2022-09-12T14:01:37.205Z,25.00
2022-09-12T14:04:34.519Z,25.10
2022-09-12T14:07:19.710Z,25.20
2022-09-12T14:09:54.726Z,25.10
2022-09-12T14:12:32.413Z,25.10
2022-09-12T14:14:59.457Z,25.10
2022-09-12T14:17:31.524Z,25.10
2022-09-12T14:20:07.035Z,25.20
2022-09-12T14:22:35.991Z,25.10
2022-09-12T14:25:03.810Z,24.90
2022-09-12T14:27:45.825Z,24.70
2022-09-12T14:30:33.093Z,24.60
2022-09-12T14:33:10.064Z,24.60
2022-09-12T14:35:43.758Z,24.60
2022-09-12T14:38:16.874Z,24.50
2022-09-12T14:40:48.731Z,24.40
2022-09-12T14:43:25.862Z,24.40
2022-09-12T14:45:59.777Z,24.30
2022-09-12T14:48:31.949Z,24.30
2022-09-12T14:50:59.173Z,24.40
2022-09-12T14:53:36.006Z,24.40
2022-09-12T14:56:12.453Z,24.50
2022-09-12T14:58:41.069Z,24.60
2022-09-12T15:01:08.331Z,24.70
2022-09-12T15:03:36.782Z,24.70
2022-09-12T15:06:07.967Z,24.80
2022-09-12T15:08:35.034Z,24.90
2022-09-12T15:11:02.218Z,25.00
2022-09-12T15:13:30.819Z,25.20
2022-09-12T15:15:59.527Z,25.30
2022-09-12T15:18:29.564Z,25.30
2022-09-12T15:21:03.294Z,25.30
2022-09-12T15:23:35.342Z,25.30
2022-09-12T15:26:02.853Z,25.30
2022-09-12T15:28:31.258Z,25.40
2022-09-12T15:31:12.430Z,25.40
2022-09-12T15:33:39.568Z,25.40
2022-09-12T15:36:13.609Z,25.40
2022-09-12T15:38:40.559Z,25.50
2022-09-12T15:41:13.583Z,25.60
2022-09-12T15:43:40.548Z,25.70
2022-09-12T15:46:11.719Z,25.70
2022-09-12T15:48:39.011Z,25.80
2022-09-12T15:51:15.070Z,25.90
2022-09-12T15:53:42.628Z,25.80
2022-09-12T15:56:09.661Z,25.80
2022-09-12T15:58:36.811Z,25.80
2022-09-12T16:01:05.190Z,25.90
2022-09-12T16:03:32.406Z,25.90
2022-09-12T16:06:01.610Z,26.00
2022-09-12T16:08:31.427Z,25.90
2022-09-12T16:11:16.895Z,25.90
2022-09-12T16:13:43.793Z,25.90
2022-09-12T16:16:11.146Z,25.90
2022-09-12T16:18:40.622Z,25.80
2022-09-12T16:21:11.422Z,25.80
2022-09-12T16:23:45.970Z,25.60
2022-09-12T16:26:13.116Z,25.60
2022-09-12T16:28:40.941Z,25.50
2022-09-12T16:31:10.837Z,25.50
2022-09-12T16:33:38.804Z,25.50
2022-09-12T16:36:11.735Z,25.50
2022-09-12T16:38:50.147Z,25.50
2022-09-12T16:41:19.236Z,25.30
2022-09-12T16:43:46.387Z,25.20
2022-09-12T16:46:16.686Z,25.10
2022-09-12T16:48:51.561Z,24.90
2022-09-12T16:51:22.555Z,24.80
2022-09-12T16:53:49.835Z,24.80
2022-09-12T16:56:17.093Z,24.70
2022-09-12T16:58:44.184Z,24.60
2022-09-12T17:01:17.142Z,24.50
2022-09-12T17:03:44.218Z,24.40
2022-09-12T17:06:14.051Z,24.30
2022-09-12T17:08:43.660Z,24.20
2022-09-12T17:11:12.921Z,24.10
2022-09-12T17:14:03.346Z,24.00
2022-09-12T17:16:28.435Z,23.80
2022-09-12T17:18:56.025Z,23.70
2022-09-12T17:21:23.491Z,23.50
2022-09-12T17:23:50.726Z,23.50
2022-09-12T17:26:17.850Z,23.40
2022-09-12T17:28:44.986Z,23.20
2022-09-12T17:31:14.518Z,23.20
2022-09-12T17:33:42.005Z,23.10
2022-09-12T17:36:15.094Z,23.00
2022-09-12T17:38:43.470Z,22.80
2022-09-12T17:41:17.707Z,22.70
2022-09-12T17:43:56.585Z,22.50
2022-09-12T17:46:31.783Z,22.50
2022-09-12T17:49:18.738Z,22.20
2022-09-12T17:51:52.172Z,21.90
2022-09-12T17:54:20.855Z,21.80
2022-09-12T17:56:49.739Z,21.60
2022-09-12T17:59:20.171Z,21.50
2022-09-12T18:02:06.498Z,21.40
2022-09-12T18:04:33.615Z,21.30
2022-09-12T18:07:00.827Z,21.20
2022-09-12T18:09:28.419Z,23.60
2022-09-12T18:11:56.038Z,21.00
2022-09-12T18:14:23.765Z,20.90
2022-09-12T18:16:50.826Z,20.80
2022-09-12T18:19:18.360Z,20.70
2022-09-12T18:21:45.489Z,20.70
2022-09-12T18:24:12.467Z,20.70
2022-09-12T18:26:39.453Z,20.60
2022-09-12T18:29:07.402Z,20.50
2022-09-12T18:31:34.571Z,20.50
2022-09-12T18:34:05.896Z,20.50
2022-09-12T18:36:32.959Z,20.40
2022-09-12T18:38:59.998Z,20.40
2022-09-12T18:41:29.041Z,20.30
2022-09-12T18:43:57.712Z,20.30
2022-09-12T18:46:25.747Z,20.30
2022-09-12T18:48:55.397Z,20.20
2022-09-12T18:51:25.821Z,20.10
2022-09-12T18:54:00.679Z,20.00
2022-09-12T18:56:34.618Z,19.80
2022-09-12T18:59:06.766Z,19.60
2022-09-12T19:01:36.631Z,19.50
2022-09-12T19:04:05.026Z,19.40
2022-09-12T19:06:35.312Z,19.30
2022-09-12T19:09:07.335Z,19.20
2022-09-12T19:11:39.998Z,19.20
2022-09-12T19:14:07.665Z,19.10
2022-09-12T19:16:35.253Z,19.00
2022-09-12T19:19:02.993Z,18.90
2022-09-12T19:21:31.511Z,18.90
2022-09-12T19:24:01.835Z,18.80
2022-09-12T19:26:29.529Z,18.70
2022-09-12T19:28:56.922Z,18.60
2022-09-12T19:31:24.594Z,18.60
2022-09-12T19:33:54.771Z,18.50
2022-09-12T19:36:43.952Z,18.50
2022-09-12T19:39:10.047Z,18.50
2022-09-12T19:41:37.359Z,18.50
2022-09-12T19:44:04.674Z,18.50
2022-09-12T19:46:31.794Z,18.40
2022-09-12T19:48:58.796Z,18.40
2022-09-12T19:51:26.428Z,18.40
2022-09-12T19:53:53.979Z,18.40
2022-09-12T19:56:25.344Z,18.30
2022-09-12T19:58:56.448Z,18.20
2022-09-12T20:01:28.319Z,18.10
2022-09-12T20:03:56.758Z,18.10
2022-09-12T20:06:23.978Z,18.00
2022-09-12T20:08:50.821Z,18.00
2022-09-12T20:11:20.166Z,17.90
2022-09-12T20:13:47.593Z,17.90
2022-09-12T20:16:33.571Z,17.80
2022-09-12T20:19:07.161Z,17.80
2022-09-12T20:21:36.138Z,17.70
2022-09-12T20:24:09.704Z,17.60
2022-09-12T20:26:36.637Z,17.60
2022-09-12T20:29:05.317Z,17.50
2022-09-12T20:31:33.387Z,17.50
2022-09-12T20:34:00.476Z,17.40
2022-09-12T20:36:27.603Z,17.20
2022-09-12T20:38:57.502Z,17.20
2022-09-12T20:41:25.603Z,17.10
2022-09-12T20:43:54.193Z,17.00
2022-09-12T20:46:22.635Z,17.00
2022-09-12T20:48:51.290Z,16.90
2022-09-12T20:51:19.416Z,16.90
2022-09-12T20:53:47.045Z,16.90
2022-09-12T20:56:15.040Z,16.90
2022-09-12T20:58:44.495Z,16.80
2022-09-12T21:01:13.946Z,16.80
2022-09-12T21:03:42.501Z,16.70
2022-09-12T21:06:10.886Z,16.70
2022-09-12T21:08:38.080Z,16.60
2022-09-12T21:11:06.042Z,16.60
2022-09-12T21:13:33.794Z,16.50
2022-09-12T21:16:03.168Z,16.40
2022-09-12T21:18:33.670Z,16.40
2022-09-12T21:21:00.969Z,16.30
2022-09-12T21:23:28.688Z,16.20
2022-09-12T21:25:55.739Z,16.20
2022-09-12T21:28:22.874Z,16.20
2022-09-12T21:30:51.120Z,16.20
2022-09-12T21:33:22.036Z,16.10
2022-09-12T21:35:49.192Z,16.10
2022-09-12T21:38:17.278Z,16.10
2022-09-12T21:40:44.587Z,16.00
2022-09-12T21:43:13.044Z,16.00
2022-09-12T21:45:40.412Z,15.90
2022-09-12T21:48:07.666Z,15.90
2022-09-12T21:50:34.649Z,15.80
2022-09-12T21:53:01.490Z,15.80
2022-09-12T21:55:28.539Z,15.70
2022-09-12T21:57:56.943Z,15.70
2022-09-12T22:00:24.108Z,15.60
2022-09-12T22:02:51.018Z,15.60
2022-09-12T22:05:19.566Z,15.60
2022-09-12T22:07:46.969Z,15.50
2022-09-12T22:10:13.899Z,15.40
2022-09-12T22:12:45.361Z,15.40
2022-09-12T22:15:38.808Z,15.30
2022-09-12T22:18:00.618Z,15.30
2022-09-12T22:20:27.615Z,15.20
2022-09-12T22:23:13.077Z,15.10
2022-09-12T22:25:40.267Z,15.10
2022-09-12T22:28:07.204Z,15.10
2022-09-12T22:30:35.447Z,15.10
2022-09-12T22:33:02.426Z,15.00
2022-09-12T22:35:29.415Z,15.00
2022-09-12T22:37:56.420Z,15.00
2022-09-12T22:40:23.365Z,14.90
2022-09-12T22:42:52.856Z,14.90
2022-09-12T22:45:20.091Z,14.80
2022-09-12T22:47:47.205Z,14.80
2022-09-12T22:50:14.278Z,14.70
2022-09-12T22:52:41.679Z,14.70
2022-09-12T22:55:09.715Z,14.70
2022-09-12T22:57:37.478Z,14.80
2022-09-12T23:00:07.965Z,14.80
2022-09-12T23:02:34.979Z,14.80
2022-09-12T23:05:02.610Z,14.80
2022-09-12T23:07:29.724Z,14.70
2022-09-12T23:09:56.925Z,14.70
2022-09-12T23:12:24.618Z,14.70
2022-09-12T23:14:51.553Z,14.70
2022-09-12T23:17:18.730Z,14.70
2022-09-12T23:19:46.069Z,14.60
2022-09-12T23:22:12.997Z,14.60
2022-09-12T23:24:39.917Z,14.60
2022-09-12T23:27:06.746Z,14.60
2022-09-12T23:29:35.328Z,14.60
2022-09-12T23:32:03.693Z,14.60
2022-09-12T23:34:30.933Z,14.50
2022-09-12T23:36:57.929Z,14.50
2022-09-12T23:39:24.962Z,14.50
2022-09-12T23:41:52.115Z,14.40
2022-09-12T23:44:19.012Z,14.30
2022-09-12T23:46:45.849Z,14.30
2022-09-12T23:49:12.759Z,14.30
2022-09-12T23:51:39.689Z,14.30
2022-09-12T23:54:06.550Z,14.20
2022-09-12T23:56:33.426Z,14.20
2022-09-12T23:59:00.438Z,14.20
